createdAt,value
2019-02-05T00:02:39.577Z,2.57
2019-02-05T00:06:43.900Z,2.47
2019-02-05T00:10:47.930Z,2.60
2019-02-05T00:14:52.287Z,2.20
2019-02-05T00:18:56.169Z,1.90
2019-02-05T00:23:00.299Z,2.20
2019-02-05T00:27:04.188Z,2.37
2019-02-05T00:31:08.160Z,2.27
2019-02-05T00:35:11.987Z,2.70
2019-02-05T00:39:16.431Z,2.10
2019-02-05T00:43:20.370Z,2.00
2019-02-05T00:47:24.304Z,2.70
2019-02-05T00:51:28.186Z,2.33
2019-02-05T00:55:32.382Z,2.13
2019-02-05T00:59:36.665Z,2.10
2019-02-05T01:03:40.517Z,2.20
2019-02-05T01:07:44.451Z,2.27
2019-02-05T01:11:48.309Z,2.23
2019-02-05T01:15:52.584Z,2.10
2019-02-05T01:19:57.501Z,1.97
2019-02-05T01:24:01.391Z,2.33
2019-02-05T01:28:05.199Z,2.20
2019-02-05T01:32:09.343Z,2.57
2019-02-05T01:36:13.695Z,2.13
2019-02-05T01:40:18.414Z,2.20
2019-02-05T01:44:22.333Z,2.50
2019-02-05T01:48:26.482Z,2.10
2019-02-05T01:52:30.398Z,2.23
2019-02-05T01:56:40.690Z,2.23
2019-02-05T02:00:39.984Z,2.40
2019-02-05T02:04:43.880Z,2.33
2019-02-05T02:08:47.894Z,2.20
2019-02-05T02:12:51.775Z,2.60
2019-02-05T02:16:55.784Z,2.53
2019-02-05T02:20:59.897Z,2.27
2019-02-05T02:25:04.386Z,2.40
2019-02-05T02:29:08.645Z,2.10
2019-02-05T02:33:12.648Z,2.37
2019-02-05T02:37:16.660Z,2.50
2019-02-05T02:41:20.624Z,2.40
2019-02-05T02:45:24.556Z,2.17
2019-02-05T02:49:28.517Z,2.10
2019-02-05T02:53:32.651Z,2.20
2019-02-05T02:57:36.683Z,3.00
2019-02-05T03:01:40.573Z,2.57
2019-02-05T03:05:44.637Z,1.83
2019-02-05T03:09:48.666Z,2.30
2019-02-05T03:13:52.674Z,2.50
2019-02-05T03:17:56.670Z,2.30
2019-02-05T03:22:00.566Z,2.23
2019-02-05T03:26:04.388Z,2.20
2019-02-05T03:30:10.313Z,2.23
2019-02-05T03:34:14.289Z,2.40
2019-02-05T03:38:18.196Z,2.00
2019-02-05T03:42:22.026Z,2.30
2019-02-05T03:46:25.946Z,2.40
2019-02-05T03:50:30.004Z,2.00
2019-02-05T03:54:40.640Z,2.00
2019-02-05T03:58:52.048Z,2.10
2019-02-05T04:03:15.640Z,2.37
2019-02-05T04:07:27.208Z,2.23
2019-02-05T04:11:36.068Z,2.40
2019-02-05T04:15:52.646Z,2.23
2019-02-05T04:20:07.480Z,2.47
2019-02-05T04:24:30.808Z,2.10
2019-02-05T04:28:41.597Z,2.03
2019-02-05T04:32:55.991Z,2.57
2019-02-05T04:37:19.254Z,2.47
2019-02-05T04:41:42.486Z,2.10
2019-02-05T04:45:54.718Z,2.40
2019-02-05T04:50:05.949Z,2.30
2019-02-05T04:54:29.215Z,2.37
2019-02-05T04:58:46.579Z,2.10
2019-02-05T05:03:01.708Z,2.50
2019-02-05T05:07:12.650Z,1.97
2019-02-05T05:11:16.571Z,2.70
2019-02-05T05:15:20.434Z,3.00
2019-02-05T05:19:24.287Z,2.53
2019-02-05T05:23:28.262Z,2.53
2019-02-05T05:27:32.239Z,2.27
2019-02-05T05:31:36.048Z,2.50
2019-02-05T05:35:44.222Z,2.70
2019-02-05T05:39:45.548Z,2.40
2019-02-05T05:43:49.562Z,2.60
2019-02-05T05:47:53.563Z,2.70
2019-02-05T05:51:58.657Z,2.83
2019-02-05T05:56:02.793Z,2.87
2019-02-05T06:00:08.826Z,2.90
2019-02-05T06:04:12.752Z,3.73
2019-02-05T06:08:17.194Z,3.83
2019-02-05T06:12:21.188Z,3.10
2019-02-05T06:16:25.389Z,2.80
2019-02-05T06:20:29.479Z,2.70
2019-02-05T06:24:33.467Z,2.97
2019-02-05T06:28:37.361Z,3.00
2019-02-05T06:32:41.380Z,2.97
2019-02-05T06:36:45.293Z,2.40
2019-02-05T06:40:49.169Z,2.53
2019-02-05T06:44:53.118Z,2.53
2019-02-05T06:48:57.106Z,2.47
2019-02-05T06:53:01.236Z,2.57
2019-02-05T06:57:05.171Z,2.73
2019-02-05T07:01:09.293Z,2.43
2019-02-05T07:05:13.518Z,2.53
2019-02-05T07:09:17.547Z,2.53
2019-02-05T07:13:21.580Z,2.67
2019-02-05T07:17:25.541Z,2.17
2019-02-05T07:21:29.554Z,2.80
2019-02-05T07:25:33.414Z,2.60
2019-02-05T07:29:37.417Z,2.27
2019-02-05T07:33:41.587Z,2.67
2019-02-05T07:37:45.915Z,2.57
2019-02-05T07:41:50.258Z,2.30
2019-02-05T07:45:54.372Z,2.20
2019-02-05T07:49:58.375Z,2.80
2019-02-05T07:54:02.280Z,3.30
2019-02-05T07:58:06.627Z,3.03
2019-02-05T08:02:10.571Z,2.40
2019-02-05T08:06:14.844Z,2.50
2019-02-05T08:10:19.518Z,2.30
2019-02-05T08:14:23.850Z,2.20
2019-02-05T08:18:29.182Z,2.80
2019-02-05T08:22:32.955Z,2.63
2019-02-05T08:26:36.836Z,2.57
2019-02-05T08:30:41.897Z,2.87
2019-02-05T08:34:45.846Z,2.60
2019-02-05T08:38:50.110Z,2.40
2019-02-05T08:42:53.998Z,2.80
2019-02-05T08:46:58.357Z,2.27
2019-02-05T08:51:02.344Z,2.23
2019-02-05T08:55:07.736Z,2.07
2019-02-05T08:59:11.795Z,1.97
2019-02-05T09:03:16.045Z,2.60
2019-02-05T09:07:19.940Z,2.20
2019-02-05T09:11:23.906Z,1.93
2019-02-05T09:15:29.468Z,2.40
2019-02-05T09:19:33.569Z,2.43
2019-02-05T09:23:37.420Z,2.23
2019-02-05T09:27:41.324Z,2.50
2019-02-05T09:31:45.217Z,2.40
2019-02-05T09:35:49.265Z,2.47
2019-02-05T09:39:53.251Z,2.60
2019-02-05T09:43:57.180Z,2.23
2019-02-05T09:48:01.280Z,2.50
2019-02-05T09:52:05.530Z,2.83
2019-02-05T09:56:09.446Z,2.50
2019-02-05T10:00:16.444Z,2.40
2019-02-05T10:04:20.363Z,2.57
2019-02-05T10:08:24.276Z,2.33
2019-02-05T10:12:28.096Z,2.57
2019-02-05T10:16:32.044Z,2.77
2019-02-05T10:20:36.175Z,2.40
2019-02-05T10:24:40.296Z,2.10
2019-02-05T10:28:44.392Z,1.90
2019-02-05T10:32:48.409Z,2.23
2019-02-05T10:36:54.128Z,2.43
2019-02-05T10:40:58.188Z,2.20
2019-02-05T10:45:02.625Z,2.23
2019-02-05T10:49:06.890Z,2.00
2019-02-05T10:53:11.064Z,2.10
2019-02-05T10:57:14.989Z,2.30
2019-02-05T11:01:19.123Z,2.33
2019-02-05T11:05:23.838Z,2.40
2019-02-05T11:09:27.756Z,2.10
2019-02-05T11:13:32.850Z,2.07
2019-02-05T11:17:39.343Z,2.53
2019-02-05T11:21:43.306Z,2.53
2019-02-05T11:25:47.295Z,2.33
2019-02-05T11:29:51.277Z,2.33
2019-02-05T11:33:55.380Z,2.20
2019-02-05T11:37:59.406Z,2.20
2019-02-05T11:42:03.440Z,2.10
2019-02-05T11:46:07.364Z,2.43
2019-02-05T11:50:11.881Z,2.43
2019-02-05T11:54:15.858Z,2.63
2019-02-05T11:58:19.880Z,2.47
2019-02-05T12:02:23.814Z,2.40
2019-02-05T12:06:27.787Z,3.00
2019-02-05T12:10:31.817Z,4.07
2019-02-05T12:14:35.921Z,3.97
2019-02-05T12:18:40.254Z,4.60
2019-02-05T12:22:44.253Z,5.17
2019-02-05T12:26:48.205Z,4.23
2019-02-05T12:30:52.238Z,3.73
2019-02-05T12:34:56.269Z,2.87
2019-02-05T12:39:00.274Z,2.20
2019-02-05T12:43:06.026Z,2.37
2019-02-05T12:47:10.246Z,2.17
2019-02-05T12:51:15.477Z,1.80
2019-02-05T12:55:19.465Z,1.80
2019-02-05T12:59:23.463Z,1.97
2019-02-05T13:03:27.501Z,1.97
2019-02-05T13:07:31.436Z,2.10
2019-02-05T13:11:35.233Z,1.90
2019-02-05T13:15:39.345Z,2.23
2019-02-05T13:19:43.201Z,2.20
2019-02-05T13:23:46.997Z,2.00
2019-02-05T13:27:50.818Z,1.80
2019-02-05T13:31:54.744Z,2.03
2019-02-05T13:35:59.085Z,2.10
2019-02-05T13:40:04.386Z,1.83
2019-02-05T13:44:08.524Z,2.23
2019-02-05T13:48:17.988Z,2.00
2019-02-05T13:52:26.587Z,2.13
2019-02-05T13:56:42.617Z,2.30
2019-02-05T14:00:47.615Z,2.50
2019-02-05T14:05:01.399Z,2.40
2019-02-05T14:09:22.013Z,2.83
2019-02-05T14:13:32.683Z,1.97
2019-02-05T14:17:48.259Z,2.43
2019-02-05T14:21:59.437Z,2.03
2019-02-05T14:26:20.823Z,2.20
2019-02-05T14:30:28.093Z,2.20
2019-02-05T14:34:42.633Z,2.30
2019-02-05T14:38:55.492Z,3.43
2019-02-05T14:43:10.205Z,3.07
2019-02-05T14:47:18.465Z,2.43
2019-02-05T14:51:24.007Z,2.10
2019-02-05T14:55:27.841Z,1.90
2019-02-05T14:59:31.858Z,1.97
2019-02-05T15:03:35.808Z,2.00
2019-02-05T15:07:39.723Z,1.93
2019-02-05T15:11:44.660Z,2.00
2019-02-05T15:15:48.504Z,2.23
2019-02-05T15:19:52.312Z,2.70
2019-02-05T15:23:58.215Z,2.50
2019-02-05T15:28:07.534Z,2.47
2019-02-05T15:32:36.922Z,2.13
2019-02-05T15:36:49.218Z,2.30
2019-02-05T15:40:56.082Z,2.00
2019-02-05T15:45:00.356Z,2.63
2019-02-05T15:49:04.574Z,2.20
2019-02-05T15:53:08.632Z,2.50
2019-02-05T15:57:13.023Z,2.00
2019-02-05T16:01:17.241Z,2.53
2019-02-05T16:05:21.775Z,2.30
2019-02-05T16:09:25.906Z,2.13
2019-02-05T16:13:30.149Z,2.00
2019-02-05T16:17:34.217Z,2.50
2019-02-05T16:21:39.412Z,2.30
2019-02-05T16:25:43.449Z,2.00
2019-02-05T16:29:48.559Z,2.07
2019-02-05T16:33:52.887Z,2.17
2019-02-05T16:37:57.381Z,2.00
2019-02-05T16:42:01.480Z,2.57
2019-02-05T16:46:05.776Z,2.47
2019-02-05T16:50:12.245Z,2.43
2019-02-05T16:54:16.423Z,2.80
2019-02-05T16:58:21.509Z,2.40
2019-02-05T17:02:28.983Z,3.00
2019-02-05T17:06:31.130Z,2.73
2019-02-05T17:10:36.503Z,3.13
2019-02-05T17:14:40.765Z,3.03
2019-02-05T17:18:44.809Z,3.40
2019-02-05T17:22:48.621Z,4.07
2019-02-05T17:26:52.484Z,2.97
2019-02-05T17:30:56.381Z,4.00
2019-02-05T17:35:00.608Z,3.10
2019-02-05T17:39:05.753Z,3.00
2019-02-05T17:43:10.273Z,3.13
2019-02-05T17:47:14.437Z,3.93
2019-02-05T17:51:18.560Z,4.23
2019-02-05T17:55:22.523Z,4.80
2019-02-05T17:59:27.643Z,4.63
2019-02-05T18:03:31.812Z,4.27
2019-02-05T18:07:36.037Z,4.00
2019-02-05T18:11:40.246Z,3.47
2019-02-05T18:15:44.939Z,3.60
2019-02-05T18:19:50.471Z,3.60
2019-02-05T18:23:54.713Z,2.90
2019-02-05T18:27:58.914Z,3.83
2019-02-05T18:32:04.010Z,3.20
2019-02-05T18:36:09.123Z,2.83
2019-02-05T18:40:13.779Z,2.50
2019-02-05T18:44:17.978Z,2.37
2019-02-05T18:48:22.289Z,1.97
2019-02-05T18:52:26.621Z,1.77
2019-02-05T18:56:30.798Z,2.00
2019-02-05T19:00:38.679Z,1.77
2019-02-05T19:04:41.764Z,1.50
2019-02-05T19:08:46.604Z,1.70
2019-02-05T19:12:51.838Z,1.93
2019-02-05T19:16:55.787Z,2.00
2019-02-05T19:20:59.703Z,2.70
2019-02-05T19:25:13.081Z,2.67
2019-02-05T19:29:18.907Z,1.80
2019-02-05T19:33:27.316Z,2.03
2019-02-05T19:37:28.205Z,1.93
2019-02-05T19:41:32.462Z,1.80
2019-02-05T19:45:48.690Z,2.00
2019-02-05T19:49:55.197Z,1.70
2019-02-05T19:53:59.090Z,2.17
2019-02-05T19:58:02.977Z,2.27
2019-02-05T20:02:06.827Z,2.63
2019-02-05T20:06:10.770Z,2.50
2019-02-05T20:10:14.716Z,2.43
2019-02-05T20:14:18.820Z,2.57
2019-02-05T20:18:22.815Z,2.60
2019-02-05T20:22:26.637Z,2.90
2019-02-05T20:26:30.612Z,2.70
2019-02-05T20:30:34.528Z,2.90
2019-02-05T20:34:38.379Z,2.90
2019-02-05T20:38:42.312Z,3.17
2019-02-05T20:42:46.252Z,2.97
2019-02-05T20:46:50.208Z,3.10
2019-02-05T20:50:56.749Z,3.10
2019-02-05T20:55:00.542Z,3.13
2019-02-05T20:59:04.800Z,2.97
2019-02-05T21:03:08.920Z,3.40
2019-02-05T21:07:13.222Z,3.53
2019-02-05T21:11:17.027Z,4.00
2019-02-05T21:15:21.470Z,3.67
2019-02-05T21:19:25.578Z,3.93
2019-02-05T21:23:29.465Z,4.73
2019-02-05T21:27:34.561Z,7.20
2019-02-05T21:31:38.453Z,4.90
2019-02-05T21:35:42.430Z,4.23
2019-02-05T21:39:46.430Z,4.63
2019-02-05T21:43:50.510Z,4.23
2019-02-05T21:47:54.542Z,3.93
2019-02-05T21:51:58.576Z,3.87
2019-02-05T21:56:02.484Z,4.13
2019-02-05T22:00:10.982Z,4.10
2019-02-05T22:04:26.417Z,4.53
2019-02-05T22:08:20.667Z,5.50
2019-02-05T22:12:24.818Z,4.97
2019-02-05T22:16:28.745Z,4.60
2019-02-05T22:20:32.815Z,5.07
2019-02-05T22:24:36.671Z,6.17
2019-02-05T22:28:40.703Z,5.23
2019-02-05T22:32:44.860Z,4.93
2019-02-05T22:36:48.882Z,5.77
2019-02-05T22:40:52.806Z,4.77
2019-02-05T22:44:56.879Z,4.83
2019-02-05T22:49:00.894Z,5.43
2019-02-05T22:53:05.153Z,5.00
2019-02-05T22:57:09.010Z,4.77
2019-02-05T23:01:32.205Z,4.17
2019-02-05T23:05:55.973Z,4.33
2019-02-05T23:10:19.495Z,4.23
2019-02-05T23:14:23.382Z,4.70
2019-02-05T23:18:27.345Z,4.90
2019-02-05T23:22:31.279Z,5.13
2019-02-05T23:26:35.264Z,4.47
2019-02-05T23:30:39.242Z,4.50
2019-02-05T23:34:43.601Z,4.50
2019-02-05T23:38:47.423Z,4.73
2019-02-05T23:42:51.873Z,5.23
2019-02-05T23:46:55.767Z,4.50
2019-02-05T23:51:00.720Z,4.13
2019-02-05T23:55:05.118Z,4.40
2019-02-05T23:59:09.071Z,4.60
